Time;durP1;ratioP1;P1;durP2;ratioP2;P2;SDS_P1;SDS_P2;PMS_P1;PMS_P2;Temp;Humidity;BMP_temperature;BMP_pressure;BME280_temperature;BME280_humidity;BME280_pressure;Samples;Min_cycle;Max_cycle;Signal;HPM_P1;HPM_P2
2022/04/26 03:37:05;;;;;;;30.40;20.67;;;11.90;99.90;;;;;;5062362;28;20379;-87
2022/04/26 03:39:33;;;;;;;31.60;19.37;;;12.00;99.90;;;;;;5062764;28;20437;-88
2022/04/26 03:42:00;;;;;;;26.30;21.43;;;11.90;99.90;;;;;;5061872;28;20543;-86
2022/04/26 03:44:27;;;;;;;23.33;19.63;;;11.70;99.90;;;;;;5067421;28;20428;-87
2022/04/26 03:46:54;;;;;;;24.80;19.87;;;11.70;99.90;;;;;;5073143;28;20495;-87
2022/04/26 03:49:23;;;;;;;24.50;19.37;;;11.50;99.90;;;;;;5074728;28;20512;-88
2022/04/26 03:51:52;;;;;;;24.07;18.83;;;11.60;99.90;;;;;;5062624;28;20540;-88
2022/04/26 03:54:19;;;;;;;24.57;20.37;;;11.50;99.90;;;;;;5062014;28;20863;-87
2022/04/26 03:56:45;;;;;;;26.80;22.17;;;11.30;99.90;;;;;;5061669;28;20472;-87
2022/04/26 03:59:13;;;;;;;30.10;22.90;;;11.20;99.90;;;;;;5061843;28;20539;-87
2022/04/26 04:01:40;;;;;;;30.97;24.13;;;11.20;99.90;;;;;;5062042;28;20435;-88
2022/04/26 04:04:07;;;;;;;28.67;22.30;;;11.20;99.90;;;;;;5075358;28;20539;-87
2022/04/26 04:06:35;;;;;;;27.80;20.93;;;11.20;99.90;;;;;;5068700;28;20524;-87
2022/04/26 04:09:02;;;;;;;25.83;21.10;;;11.20;99.90;;;;;;5068188;28;20522;-87
2022/04/26 04:11:29;;;;;;;26.53;20.30;;;11.30;99.90;;;;;;5067729;28;20907;-86
2022/04/26 04:13:56;;;;;;;26.20;20.23;;;11.30;99.90;;;;;;5067221;28;20564;-86
2022/04/26 04:16:23;;;;;;;28.20;21.17;;;11.20;99.90;;;;;;5066025;28;20922;-87
2022/04/26 04:21:36;;;;;;;26.10;19.57;;;11.20;99.90;;;;;;5048275;28;20521;-88
2022/04/26 04:24:04;;;;;;;25.73;20.30;;;11.40;99.90;;;;;;5067760;28;20422;-88
2022/04/26 04:26:31;;;;;;;24.57;18.63;;;11.60;99.90;;;;;;5065111;28;20450;-88
2022/04/26 04:28:58;;;;;;;22.57;18.07;;;11.70;99.90;;;;;;5065942;28;20427;-89
2022/04/26 04:31:25;;;;;;;20.40;15.87;;;11.70;99.90;;;;;;5065530;28;20512;-88
2022/04/26 04:33:51;;;;;;;22.93;17.47;;;11.70;99.90;;;;;;5065143;28;20812;-88
2022/04/26 04:36:18;;;;;;;18.90;16.07;;;11.70;99.90;;;;;;5064777;28;20482;-87
2022/04/26 04:38:46;;;;;;;23.40;18.33;;;11.70;99.90;;;;;;5065096;28;20472;-89
2022/04/26 04:41:14;;;;;;;22.57;16.37;;;11.90;99.90;;;;;;5075753;28;20456;-88
2022/04/26 04:43:41;;;;;;;22.97;17.03;;;11.90;99.90;;;;;;5077305;28;20419;-88
2022/04/26 04:46:08;;;;;;;23.10;17.07;;;11.80;99.90;;;;;;5080031;28;20488;-88
2022/04/26 04:48:35;;;;;;;24.63;18.87;;;11.70;99.90;;;;;;5070738;28;20518;-88
2022/04/26 04:51:02;;;;;;;23.37;17.63;;;11.70;99.90;;;;;;5067552;28;20415;-87
2022/04/26 04:53:29;;;;;;;21.93;18.13;;;11.70;99.90;;;;;;5065799;28;20415;-86
2022/04/26 04:55:57;;;;;;;21.00;17.90;;;11.80;99.90;;;;;;5063046;28;20457;-88
2022/04/26 04:58:25;;;;;;;21.57;17.67;;;11.90;99.90;;;;;;5077755;28;20456;-89
2022/04/26 05:00:52;;;;;;;21.47;17.10;;;11.80;99.90;;;;;;5066893;28;20498;-88
2022/04/26 05:03:19;;;;;;;20.00;16.27;;;11.80;99.90;;;;;;5066821;28;20444;-87
2022/04/26 05:05:46;;;;;;;20.83;16.80;;;11.80;99.90;;;;;;5070838;28;20451;-87
2022/04/26 05:08:13;;;;;;;21.67;17.27;;;11.70;99.90;;;;;;5079957;28;20491;-89
2022/04/26 05:10:41;;;;;;;21.67;16.93;;;11.70;99.90;;;;;;5071354;28;20462;-89
2022/04/26 05:13:09;;;;;;;19.93;16.57;;;11.90;99.90;;;;;;5065682;28;20975;-88
2022/04/26 05:15:38;;;;;;;21.70;18.07;;;11.80;99.90;;;;;;5063172;28;20477;-88
2022/04/26 05:18:05;;;;;;;21.23;16.90;;;11.80;99.90;;;;;;5065067;28;20411;-88
2022/04/26 05:20:32;;;;;;;21.20;17.73;;;11.80;99.90;;;;;;5066069;28;20479;-88
2022/04/26 05:25:45;;;;;;;20.27;16.97;;;11.80;99.90;;;;;;5071358;28;20455;-89
2022/04/26 05:28:13;;;;;;;23.23;19.03;;;11.80;99.90;;;;;;5075982;28;20484;-88
2022/04/26 05:30:40;;;;;;;22.50;18.30;;;11.90;99.90;;;;;;5073136;28;20463;-88
2022/04/26 05:33:07;;;;;;;23.30;19.37;;;11.80;99.90;;;;;;5071716;28;20468;-88
2022/04/26 05:35:34;;;;;;;23.83;18.60;;;11.80;99.90;;;;;;5078962;28;20461;-87
2022/04/26 05:38:01;;;;;;;21.00;17.90;;;11.80;99.90;;;;;;5075874;28;20548;-86
2022/04/26 05:40:31;;;;;;;24.03;19.20;;;11.80;99.90;;;;;;5068846;28;20439;-87
2022/04/26 05:42:58;;;;;;;21.47;17.27;;;11.80;99.90;;;;;;5069322;28;20504;-88
2022/04/26 05:45:27;;;;;;;20.07;16.80;;;11.80;99.90;;;;;;5068254;28;20440;-89
2022/04/26 05:47:55;;;;;;;17.13;15.20;;;11.90;99.90;;;;;;5064811;28;20486;-89
2022/04/26 05:50:21;;;;;;;18.40;15.37;;;12.00;99.90;;;;;;5066802;28;20869;-89
2022/04/26 05:52:49;;;;;;;22.53;15.67;;;12.00;99.90;;;;;;5064299;28;20449;-89
2022/04/26 05:55:16;;;;;;;18.63;15.70;;;12.00;99.90;;;;;;5063141;28;20531;-89
2022/04/26 05:57:43;;;;;;;19.73;16.20;;;12.00;99.90;;;;;;5060961;28;20487;-89
2022/04/26 06:00:11;;;;;;;21.60;17.30;;;11.90;99.90;;;;;;5060596;28;20460;-89
2022/04/26 06:02:40;;;;;;;20.00;17.40;;;12.00;99.90;;;;;;5063378;28;20427;-88
2022/04/26 06:05:08;;;;;;;19.53;16.13;;;11.90;99.90;;;;;;5066678;28;20518;-89
2022/04/26 06:07:40;;;;;;;19.33;16.93;;;11.90;99.90;;;;;;5077361;28;20523;-88
2022/04/26 06:10:09;;;;;;;17.83;15.87;;;12.00;99.90;;;;;;5074214;28;20809;-88
2022/04/26 06:12:36;;;;;;;17.90;15.50;;;12.00;99.90;;;;;;5069793;28;20463;-88
2022/04/26 06:15:03;;;;;;;19.53;15.40;;;12.00;99.90;;;;;;5067453;28;20473;-88
2022/04/26 06:17:32;;;;;;;18.60;16.60;;;11.90;99.90;;;;;;5065968;28;20445;-88
2022/04/26 06:20:07;;;;;;;21.77;17.30;;;12.00;99.90;;;;;;5063315;28;20434;-87
2022/04/26 06:22:35;;;;;;;22.37;17.50;;;11.90;99.90;;;;;;5062306;28;20518;-87
2022/04/26 06:25:05;;;;;;;22.20;17.70;;;11.90;99.90;;;;;;5062635;28;20485;-87
2022/04/26 06:27:32;;;;;;;21.97;17.87;;;12.00;99.90;;;;;;5060826;28;20458;-88
2022/04/26 06:29:59;;;;;;;18.50;15.90;;;12.00;99.90;;;;;;5061419;28;20478;-88
2022/04/26 06:32:28;;;;;;;22.77;17.53;;;12.00;99.90;;;;;;5060391;28;20456;-88
2022/04/26 06:34:55;;;;;;;18.80;14.50;;;12.00;99.90;;;;;;5060464;28;20447;-88
2022/04/26 06:37:24;;;;;;;18.20;14.70;;;12.20;99.90;;;;;;5061638;28;20425;-88
2022/04/26 06:39:51;;;;;;;19.97;16.10;;;12.40;99.90;;;;;;5060413;28;20475;-89
2022/04/26 06:42:19;;;;;;;18.10;14.47;;;12.40;99.90;;;;;;5061345;28;20498;-88
2022/04/26 06:44:53;;;;;;;19.97;16.63;;;12.40;99.90;;;;;;5059764;28;20594;-87
2022/04/26 06:47:39;;;;;;;19.47;15.33;;;12.30;99.90;;;;;;5066756;28;21064;-87
2022/04/26 06:50:10;;;;;;;18.90;15.03;;;12.10;99.90;;;;;;5072416;28;20429;-87
2022/04/26 06:52:41;;;;;;;17.50;15.60;;;12.00;99.90;;;;;;5065752;28;20980;-88
2022/04/26 06:55:12;;;;;;;18.80;15.40;;;12.10;99.90;;;;;;5063385;28;20504;-88
2022/04/26 06:57:49;;;;;;;17.93;14.70;;;12.00;99.90;;;;;;5061919;28;20488;-88
2022/04/26 07:00:40;;;;;;;15.53;13.07;;;12.10;99.90;;;;;;5060326;28;20444;-87
2022/04/26 07:03:11;;;;;;;22.03;15.20;;;12.30;99.90;;;;;;5060993;28;20471;-87
2022/04/26 07:05:41;;;;;;;21.90;14.40;;;12.40;99.90;;;;;;5065079;28;20499;-88
2022/04/26 07:08:13;;;;;;;17.43;14.83;;;12.30;99.90;;;;;;5066644;28;20479;-88
2022/04/26 07:10:48;;;;;;;18.47;15.50;;;12.20;99.90;;;;;;5061279;28;20478;-88
2022/04/26 07:13:23;;;;;;;18.00;14.20;;;12.30;99.90;;;;;;5060234;28;20400;-87
2022/04/26 07:15:52;;;;;;;16.10;12.80;;;12.30;99.90;;;;;;5060497;28;20423;-87
2022/04/26 07:18:29;;;;;;;13.80;11.73;;;12.40;99.90;;;;;;5061524;28;20461;-88
2022/04/26 07:21:00;;;;;;;12.60;11.10;;;12.60;99.90;;;;;;5071711;28;20540;-87
2022/04/26 07:23:31;;;;;;;11.60;9.50;;;12.60;99.90;;;;;;5061879;28;20453;-87
2022/04/26 07:26:03;;;;;;;11.73;9.40;;;12.80;99.90;;;;;;5058958;28;20431;-87
2022/04/26 07:28:30;;;;;;;13.50;9.27;;;12.90;99.90;;;;;;5073165;28;20488;-86
2022/04/26 07:30:57;;;;;;;11.40;8.33;;;12.90;99.90;;;;;;5072666;28;20478;-87
2022/04/26 07:36:09;;;;;;;10.47;8.13;;;13.00;99.90;;;;;;5068026;28;20975;-88
2022/04/26 07:38:38;;;;;;;9.10;7.10;;;13.20;99.90;;;;;;5061839;28;20519;-88
2022/04/26 07:41:07;;;;;;;8.43;7.13;;;13.20;99.90;;;;;;5061877;28;20468;-87
2022/04/26 07:43:34;;;;;;;8.27;6.60;;;13.10;99.90;;;;;;5061934;28;20457;-88
2022/04/26 07:46:01;;;;;;;11.30;8.00;;;13.10;99.90;;;;;;5062523;28;20507;-87
2022/04/26 07:48:34;;;;;;;16.83;8.73;;;13.00;99.90;;;;;;5063542;28;20936;-87
2022/04/26 07:51:07;;;;;;;10.60;8.40;;;12.80;99.90;;;;;;5062918;28;20461;-88
2022/04/26 07:53:40;;;;;;;10.60;8.63;;;12.70;99.90;;;;;;5064796;28;20790;-88
2022/04/26 07:56:07;;;;;;;9.73;8.73;;;12.60;99.90;;;;;;5061850;28;20496;-88
2022/04/26 07:58:34;;;;;;;10.47;7.70;;;12.60;99.90;;;;;;5062386;28;20435;-89
2022/04/26 08:01:05;;;;;;;9.33;7.90;;;12.60;99.90;;;;;;5044327;28;20441;-89
2022/04/26 08:03:33;;;;;;;10.10;8.50;;;12.60;99.90;;;;;;5061118;28;20502;-87
2022/04/26 08:06:00;;;;;;;10.60;7.83;;;12.60;99.90;;;;;;5061203;28;20455;-87
2022/04/26 08:08:44;;;;;;;11.77;9.13;;;12.70;99.90;;;;;;5060053;28;20472;-87
2022/04/26 08:11:16;;;;;;;9.83;8.53;;;12.70;99.90;;;;;;5064255;28;20531;-88
2022/04/26 08:13:46;;;;;;;10.33;8.17;;;12.70;99.90;;;;;;5060657;28;20466;-88
2022/04/26 08:16:14;;;;;;;9.10;7.17;;;12.90;99.90;;;;;;5059972;28;20495;-88
2022/04/26 08:18:41;;;;;;;9.47;7.80;;;13.00;99.90;;;;;;5060601;28;20450;-87
2022/04/26 08:21:09;;;;;;;8.83;7.80;;;13.10;99.90;;;;;;5060194;28;20439;-87
2022/04/26 08:27:22;;;;;;;9.43;7.53;;;13.10;99.90;;;;;;5062491;28;20420;-87
2022/04/26 08:29:12;;;;;;;9.67;7.47;;;13.10;99.90;;;;;;5060085;28;20486;-87
2022/04/26 08:31:39;;;;;;;11.23;7.60;;;13.40;99.90;;;;;;5061238;28;20444;-87
2022/04/26 08:34:06;;;;;;;12.67;9.63;;;13.40;99.90;;;;;;5061175;28;20446;-86
2022/04/26 08:36:35;;;;;;;11.07;8.10;;;13.40;99.90;;;;;;5062415;28;20451;-87
2022/04/26 08:39:02;;;;;;;10.40;8.50;;;13.50;99.90;;;;;;5062506;28;20453;-88
2022/04/26 08:41:31;;;;;;;13.20;8.57;;;13.50;99.90;;;;;;5064773;28;20522;-88
2022/04/26 08:43:58;;;;;;;9.33;7.63;;;13.50;99.90;;;;;;5063074;28;20457;-90
2022/04/26 08:50:59;;;;;;;10.63;8.13;;;13.50;99.90;;;;;;5065422;28;20471;-86
2022/04/26 08:52:03;;;;;;;12.60;8.70;;;13.70;99.90;;;;;;5077394;28;20598;-87
2022/04/26 08:54:31;;;;;;;9.73;8.33;;;13.70;99.90;;;;;;5076626;28;20465;-87
2022/04/26 08:57:00;;;;;;;11.20;8.50;;;13.70;99.90;;;;;;5073511;28;20494;-87
2022/04/26 08:59:27;;;;;;;12.77;8.53;;;13.80;99.90;;;;;;5067421;28;20475;-88
2022/04/26 09:02:15;;;;;;;14.33;9.70;;;13.90;99.90;;;;;;5066128;28;20435;-87
2022/04/26 09:04:42;;;;;;;13.73;8.23;;;14.00;99.90;;;;;;5065179;28;20576;-87
2022/04/26 09:07:11;;;;;;;10.90;8.87;;;14.10;99.90;;;;;;5064949;28;20423;-87
2022/04/26 09:09:41;;;;;;;9.07;7.17;;;14.10;99.90;;;;;;5065655;28;20477;-88
2022/04/26 09:12:12;;;;;;;11.20;7.60;;;14.00;99.90;;;;;;5069195;28;20425;-89
2022/04/26 09:14:47;;;;;;;11.23;7.23;;;14.00;99.90;;;;;;5066740;28;20496;-88
2022/04/26 09:17:17;;;;;;;9.20;6.83;;;14.00;99.90;;;;;;5066670;28;20800;-87
2022/04/26 09:19:47;;;;;;;8.93;7.50;;;14.00;99.90;;;;;;5064468;28;20900;-88
2022/04/26 09:22:19;;;;;;;8.40;7.10;;;13.90;99.90;;;;;;5076375;28;20947;-88
2022/04/26 09:24:57;;;;;;;11.80;6.07;;;13.90;99.90;;;;;;5077925;28;20548;-88
2022/04/26 09:27:29;;;;;;;7.63;6.80;;;14.10;99.90;;;;;;5071635;28;20407;-89
2022/04/26 09:29:57;;;;;;;9.67;7.47;;;13.90;99.90;;;;;;5068759;28;20546;-89
2022/04/26 09:32:26;;;;;;;10.27;8.47;;;13.90;99.90;;;;;;5065413;28;20434;-87
2022/04/26 09:34:53;;;;;;;11.23;8.07;;;13.90;99.90;;;;;;5062750;28;20474;-88
2022/04/26 09:37:26;;;;;;;7.83;6.00;;;13.90;99.90;;;;;;5068773;28;20445;-89
2022/04/26 09:40:05;;;;;;;10.97;8.30;;;13.90;99.90;;;;;;5068370;28;20592;-89
2022/04/26 09:42:36;;;;;;;10.63;7.90;;;14.00;99.90;;;;;;5071509;28;20837;-88
2022/04/26 09:45:07;;;;;;;8.20;6.40;;;14.00;99.90;;;;;;5071466;28;20480;-87
2022/04/26 09:47:40;;;;;;;8.63;6.73;;;14.10;99.90;;;;;;5067411;28;20495;-86
2022/04/26 09:50:09;;;;;;;10.30;6.90;;;14.30;99.90;;;;;;5067735;28;20515;-86
2022/04/26 09:52:36;;;;;;;8.57;6.50;;;14.30;99.90;;;;;;5064666;28;20481;-87
2022/04/26 09:55:04;;;;;;;7.50;6.10;;;14.50;99.90;;;;;;5066386;28;20514;-85
2022/04/26 09:57:35;;;;;;;11.87;7.23;;;14.50;99.90;;;;;;5063755;28;20529;-87
2022/04/26 10:00:05;;;;;;;9.23;6.47;;;14.60;99.90;;;;;;5062252;28;20417;-86
2022/04/26 10:02:33;;;;;;;7.63;6.23;;;14.70;99.90;;;;;;5063390;28;20408;-87
2022/04/26 10:05:06;;;;;;;9.90;6.80;;;14.90;99.90;;;;;;5062610;28;20519;-87
2022/04/26 10:07:37;;;;;;;9.37;5.80;;;14.90;99.90;;;;;;5062984;28;20838;-87
2022/04/26 10:10:06;;;;;;;8.50;6.57;;;15.00;99.90;;;;;;5070319;28;20468;-87
2022/04/26 10:12:35;;;;;;;9.47;5.50;;;15.20;99.70;;;;;;5073276;28;20415;-89
2022/04/26 10:15:03;;;;;;;14.10;7.27;;;15.30;98.40;;;;;;5071132;28;20511;-89
2022/04/26 10:17:32;;;;;;;9.97;5.40;;;15.40;98.20;;;;;;5070224;28;20433;-88
2022/04/26 10:20:00;;;;;;;7.30;5.43;;;15.30;97.70;;;;;;5068537;28;20441;-89
2022/04/26 10:22:57;;;;;;;6.83;4.80;;;15.30;97.60;;;;;;5068187;28;20479;-88
2022/04/26 10:25:26;;;;;;;8.97;6.50;;;15.20;98.90;;;;;;5068514;28;20523;-88
2022/04/26 10:28:26;;;;;;;32.03;18.30;;;15.10;98.80;;;;;;5067665;28;20432;-89
2022/04/26 10:30:59;;;;;;;6.80;5.17;;;15.20;98.60;;;;;;5066741;28;20446;-88
2022/04/26 10:33:38;;;;;;;8.40;5.70;;;15.30;98.10;;;;;;5067880;28;20430;-88
2022/04/26 10:36:34;;;;;;;7.70;5.83;;;15.30;98.20;;;;;;5067900;28;20463;-88
2022/04/26 10:39:24;;;;;;;9.30;6.60;;;15.20;99.10;;;;;;5068019;28;20415;-86
2022/04/26 10:41:52;;;;;;;8.70;5.80;;;15.20;98.90;;;;;;5067381;28;20925;-89
2022/04/26 10:44:40;;;;;;;7.83;5.00;;;15.20;98.20;;;;;;5067211;28;20479;-89
2022/04/26 10:47:29;;;;;;;6.90;4.20;;;15.20;96.50;;;;;;5067977;28;20411;-88
2022/04/26 10:50:02;;;;;;;7.80;5.03;;;15.00;96.70;;;;;;5067930;28;20447;-89
2022/04/26 10:52:43;;;;;;;9.33;5.50;;;15.00;97.70;;;;;;5067750;28;20415;-88
2022/04/26 10:55:27;;;;;;;10.57;6.27;;;15.30;97.30;;;;;;5071400;28;20507;-85
2022/04/26 10:57:55;;;;;;;7.50;5.07;;;15.40;96.30;;;;;;5076825;28;20426;-89
2022/04/26 11:00:38;;;;;;;7.57;4.47;;;15.50;96.50;;;;;;5072074;28;20457;-88
2022/04/26 11:03:08;;;;;;;8.13;5.07;;;15.60;95.90;;;;;;5067953;28;20448;-88
2022/04/26 11:05:35;;;;;;;6.93;4.40;;;15.50;95.80;;;;;;5072391;28;20482;-86
2022/04/26 11:08:05;;;;;;;6.10;3.87;;;15.60;94.20;;;;;;5065122;28;20528;-86
2022/04/26 11:11:00;;;;;;;5.90;3.77;;;15.70;92.00;;;;;;5061393;28;20459;-87
2022/04/26 11:13:35;;;;;;;10.20;5.40;;;15.70;92.10;;;;;;5062404;28;20449;-87
2022/04/26 11:16:13;;;;;;;8.97;4.27;;;15.70;92.00;;;;;;5068540;28;20462;-87
2022/04/26 11:18:42;;;;;;;10.80;4.90;;;15.90;91.40;;;;;;5070199;28;20467;-86
2022/04/26 11:21:12;;;;;;;6.90;3.97;;;16.10;90.60;;;;;;5065457;28;20452;-86
2022/04/26 11:29:26;;;;;;;8.90;5.70;;;14.40;99.90;;;;;;5064155;28;20492;-88
2022/04/26 11:31:55;;;;;;;9.50;6.03;;;13.60;99.90;;;;;;5069113;28;20422;-88
2022/04/26 11:34:47;;;;;;;9.90;8.27;;;13.30;99.90;;;;;;5073008;28;20467;-86
2022/04/26 11:37:14;;;;;;;8.93;6.77;;;13.00;99.90;;;;;;5064566;28;20431;-87
2022/04/26 11:39:43;;;;;;;10.40;5.13;;;13.10;99.90;;;;;;5063369;28;20449;-88
2022/04/26 11:42:10;;;;;;;10.67;6.50;;;13.00;99.90;;;;;;5063267;28;20456;-88
2022/04/26 11:44:56;;;;;;;7.43;5.13;;;13.20;99.90;;;;;;5062069;28;20431;-87
2022/04/26 11:47:43;;;;;;;9.73;5.60;;;13.20;99.90;;;;;;5063333;28;20979;-87
2022/04/26 11:50:15;;;;;;;9.07;5.90;;;13.00;99.90;;;;;;5073743;28;20447;-88
2022/04/26 11:52:44;;;;;;;7.93;6.97;;;12.90;99.90;;;;;;5074811;28;20437;-87
2022/04/26 11:55:22;;;;;;;10.17;8.47;;;12.90;99.90;;;;;;5069034;28;20443;-88
2022/04/26 11:57:49;;;;;;;10.87;7.20;;;13.00;99.90;;;;;;5067596;28;20411;-87
2022/04/26 12:00:18;;;;;;;8.47;7.03;;;13.30;99.90;;;;;;5068279;28;20431;-89
2022/04/26 12:02:49;;;;;;;9.63;7.70;;;13.30;99.90;;;;;;5063523;28;20443;-87
2022/04/26 12:05:20;;;;;;;11.87;8.27;;;13.40;99.90;;;;;;5063457;28;20483;-87
2022/04/26 12:07:47;;;;;;;11.03;6.30;;;13.70;99.90;;;;;;5064473;28;20412;-87
2022/04/26 12:10:29;;;;;;;8.20;5.73;;;13.90;99.90;;;;;;5064240;28;20534;-89
2022/04/26 12:12:57;;;;;;;14.80;5.43;;;14.20;99.90;;;;;;5066590;28;20936;-87
2022/04/26 12:15:26;;;;;;;7.10;4.70;;;14.50;99.90;;;;;;5066031;28;20466;-88
2022/04/26 12:18:09;;;;;;;7.57;5.67;;;14.50;99.90;;;;;;5064705;28;20454;-87
2022/04/26 12:20:55;;;;;;;6.40;4.50;;;14.30;99.90;;;;;;5063427;28;20445;-88
2022/04/26 12:23:23;;;;;;;9.10;6.10;;;14.20;99.90;;;;;;5069075;28;20411;-88
2022/04/26 12:25:55;;;;;;;8.10;6.37;;;13.80;99.90;;;;;;5073734;28;20468;-87
2022/04/26 12:28:22;;;;;;;9.73;6.60;;;13.70;99.90;;;;;;5077941;28;20405;-87
2022/04/26 12:30:49;;;;;;;12.00;6.83;;;13.70;99.90;;;;;;5079150;28;20588;-89
2022/04/26 12:33:27;;;;;;;10.63;5.70;;;13.70;99.90;;;;;;5077848;28;20449;-90
2022/04/26 12:36:02;;;;;;;8.40;6.00;;;13.80;99.90;;;;;;5068138;28;20454;-88
2022/04/26 12:38:29;;;;;;;8.53;6.33;;;13.70;99.90;;;;;;5068121;28;20479;-88
2022/04/26 12:41:05;;;;;;;8.83;6.37;;;13.80;99.90;;;;;;5067062;28;20415;-88
2022/04/26 12:43:33;;;;;;;6.97;5.20;;;13.60;99.90;;;;;;5066168;28;20462;-87
2022/04/26 12:46:02;;;;;;;10.27;5.67;;;13.50;99.90;;;;;;5069370;28;20496;-86
2022/04/26 12:51:20;;;;;;;7.87;5.30;;;13.30;99.90;;;;;;5068401;28;20417;-89
2022/04/26 12:53:51;;;;;;;6.20;4.30;;;13.00;99.90;;;;;;5075073;28;20413;-89
2022/04/26 12:56:25;;;;;;;5.93;3.70;;;12.90;99.90;;;;;;5076465;28;20502;-88
2022/04/26 12:58:52;;;;;;;6.43;3.70;;;12.70;99.90;;;;;;5074514;28;20436;-88
2022/04/26 13:01:20;;;;;;;4.70;2.57;;;12.70;99.90;;;;;;5069806;28;20459;-88
2022/04/26 13:03:49;;;;;;;6.87;3.57;;;12.50;99.90;;;;;;5070418;28;20539;-90
2022/04/26 13:06:18;;;;;;;6.87;3.57;;;12.40;99.90;;;;;;5068916;28;20999;-89
2022/04/26 13:08:47;;;;;;;6.87;3.93;;;12.20;99.90;;;;;;5069956;28;20499;-89
2022/04/26 13:11:17;;;;;;;6.17;3.77;;;12.20;99.90;;;;;;5069204;28;20499;-89
2022/04/26 13:13:46;;;;;;;9.03;4.00;;;12.30;99.90;;;;;;5071834;28;20474;-87
2022/04/26 13:16:13;;;;;;;7.43;4.13;;;12.30;99.90;;;;;;5072062;28;20465;-89
2022/04/26 13:18:42;;;;;;;5.90;4.07;;;12.50;99.90;;;;;;5072392;28;20434;-90
2022/04/26 13:21:13;;;;;;;7.23;3.87;;;12.70;99.90;;;;;;5072398;28;20440;-89
2022/04/26 13:23:43;;;;;;;7.10;3.40;;;12.80;99.90;;;;;;5073212;28;20445;-89
2022/04/26 13:26:10;;;;;;;5.93;4.13;;;12.90;99.90;;;;;;5071815;28;20455;-90
2022/04/26 13:28:37;;;;;;;8.90;4.80;;;12.90;99.90;;;;;;5071330;28;20432;-87
2022/04/26 13:31:04;;;;;;;6.90;4.30;;;13.00;99.90;;;;;;5071545;28;20491;-88
2022/04/26 13:33:34;;;;;;;6.40;3.77;;;12.90;99.90;;;;;;5067820;28;20479;-88
2022/04/26 13:36:01;;;;;;;6.60;3.60;;;13.00;99.90;;;;;;5068236;28;20462;-88
2022/04/26 13:38:29;;;;;;;6.53;4.07;;;13.20;99.90;;;;;;5103380;22;20502;-86
2022/04/26 13:40:59;;;;;;;6.00;3.83;;;13.10;99.90;;;;;;5089371;28;20492;-86
2022/04/26 13:43:28;;;;;;;5.00;3.37;;;13.20;99.90;;;;;;5088740;28;20430;-87
2022/04/26 13:46:05;;;;;;;5.17;2.70;;;13.40;99.90;;;;;;5087572;28;20538;-87
2022/04/26 13:48:42;;;;;;;7.23;3.53;;;13.50;99.90;;;;;;5084134;28;20450;-87
2022/04/26 13:51:09;;;;;;;5.73;3.00;;;13.60;99.90;;;;;;5082090;28;20471;-87
2022/04/26 13:53:38;;;;;;;5.40;2.93;;;13.80;99.90;;;;;;5082974;28;20459;-87
2022/04/26 13:56:07;;;;;;;6.33;2.87;;;14.00;99.90;;;;;;5083348;28;20949;-86
2022/04/26 13:58:34;;;;;;;5.50;3.20;;;14.10;99.90;;;;;;5083441;28;20435;-86
2022/04/26 14:01:01;;;;;;;8.23;2.33;;;14.20;99.90;;;;;;5082876;28;20422;-86
2022/04/26 14:03:28;;;;;;;4.60;2.63;;;14.50;99.90;;;;;;5085805;28;20431;-86
2022/04/26 14:06:01;;;;;;;5.33;2.93;;;14.90;99.90;;;;;;5084844;28;20487;-86
2022/04/26 14:08:31;;;;;;;4.23;2.37;;;15.10;98.60;;;;;;5084191;28;20423;-86
2022/04/26 14:11:00;;;;;;;3.67;2.50;;;15.30;96.70;;;;;;5083967;28;20481;-86
2022/04/26 14:13:27;;;;;;;4.97;2.73;;;15.30;96.70;;;;;;5085707;28;20448;-87
2022/04/26 14:24:10;;;;;;;5.07;2.93;;;15.40;96.50;;;;;;5089859;28;20391;-87
2022/04/26 14:26:41;;;;;;;3.90;2.53;;;15.50;95.30;;;;;;5093155;28;20422;-86
2022/04/26 14:29:11;;;;;;;5.17;3.00;;;15.40;95.50;;;;;;5095720;28;20407;-87
2022/04/26 14:31:39;;;;;;;4.93;3.13;;;15.20;96.50;;;;;;5087910;28;20413;-84
2022/04/26 14:34:06;;;;;;;5.00;3.43;;;15.10;96.50;;;;;;5087211;28;20891;-85
2022/04/26 14:36:36;;;;;;;5.27;3.60;;;14.70;97.40;;;;;;5082870;28;20435;-86
2022/04/26 14:39:03;;;;;;;5.50;3.80;;;14.70;98.30;;;;;;5083426;28;20500;-85
2022/04/26 14:41:33;;;;;;;5.00;3.37;;;14.70;97.90;;;;;;5083431;28;20407;-86
2022/04/26 14:44:06;;;;;;;5.50;3.60;;;14.70;97.40;;;;;;5084151;28;20459;-86
2022/04/26 14:46:34;;;;;;;6.40;3.70;;;14.50;98.10;;;;;;5083596;28;20403;-86
2022/04/26 14:49:01;;;;;;;7.53;3.63;;;14.40;99.90;;;;;;5083147;28;20475;-86
2022/04/26 14:51:29;;;;;;;4.97;3.30;;;14.70;99.20;;;;;;5093939;28;20496;-86
2022/04/26 14:53:58;;;;;;;5.10;3.50;;;15.20;97.80;;;;;;5096678;28;20418;-87
2022/04/26 14:56:27;;;;;;;4.77;2.93;;;15.40;97.40;;;;;;5088008;28;20486;-86
2022/04/26 14:58:54;;;;;;;5.10;2.40;;;15.70;96.10;;;;;;5095061;28;20506;-86
2022/04/26 15:01:23;;;;;;;4.70;2.73;;;16.00;95.70;;;;;;5084423;28;20439;-85
2022/04/26 15:03:52;;;;;;;6.07;3.10;;;16.20;94.40;;;;;;5079568;28;20510;-88
2022/04/26 15:06:22;;;;;;;5.80;3.33;;;16.50;93.30;;;;;;5081866;28;20478;-86
2022/04/26 15:11:48;;;;;;;4.90;3.30;;;16.40;93.10;;;;;;5086410;28;20547;-87
2022/04/26 15:17:07;;;;;;;7.87;4.33;;;15.80;94.30;;;;;;5082812;28;20457;-87
2022/04/26 15:19:37;;;;;;;5.37;3.23;;;15.50;95.30;;;;;;5080833;28;20819;-87
2022/04/26 15:22:52;;;;;;;5.83;3.43;;;15.10;95.70;;;;;;5086099;28;20500;-88
2022/04/26 15:25:26;;;;;;;5.73;3.40;;;14.80;96.60;;;;;;5082570;28;20443;-87
2022/04/26 15:27:55;;;;;;;7.57;4.20;;;14.60;97.30;;;;;;5081448;28;20475;-86
2022/04/26 15:30:28;;;;;;;5.90;4.10;;;14.40;98.20;;;;;;5079271;28;20483;-87
2022/04/26 15:33:03;;;;;;;5.47;3.80;;;14.30;99.00;;;;;;5088989;28;20924;-87
2022/04/26 15:35:31;;;;;;;6.13;3.47;;;14.30;98.20;;;;;;5090970;28;20432;-88
2022/04/26 15:38:00;;;;;;;7.47;4.13;;;14.20;98.50;;;;;;5082712;28;20554;-87
2022/04/26 15:40:29;;;;;;;5.00;3.20;;;14.00;99.40;;;;;;5084467;28;20443;-87
2022/04/26 15:42:56;;;;;;;5.13;3.43;;;13.90;99.80;;;;;;5085679;28;20449;-86
2022/04/26 15:45:26;;;;;;;5.67;3.73;;;13.50;99.90;;;;;;5083930;28;20476;-88
2022/04/26 15:48:49;;;;;;;5.93;3.90;;;13.40;99.90;;;;;;5085200;28;20427;-88
2022/04/26 15:52:02;;;;;;;5.70;4.17;;;13.30;99.90;;;;;;5088582;28;20576;-89
2022/04/26 15:54:52;;;;;;;8.33;4.20;;;13.30;99.90;;;;;;5080323;28;20426;-88
2022/04/26 15:57:23;;;;;;;4.53;3.03;;;13.10;99.90;;;;;;5053203;28;20467;-88
2022/04/26 15:59:54;;;;;;;6.03;3.77;;;13.30;99.90;;;;;;5080532;28;20440;-87
2022/04/26 16:02:23;;;;;;;4.90;3.20;;;13.30;99.90;;;;;;5082966;28;20582;-86
2022/04/26 16:04:51;;;;;;;5.50;3.73;;;13.20;99.90;;;;;;5082588;28;20456;-86
2022/04/26 16:07:19;;;;;;;4.50;3.20;;;13.20;99.90;;;;;;5082974;28;20534;-86
2022/04/26 16:20:52;;;;;;;5.17;2.93;;;13.30;99.90;;;;;;5084636;28;20438;-87
2022/04/26 16:23:25;;;;;;;6.80;3.53;;;13.50;99.90;;;;;;5092745;28;20487;-86
2022/04/26 16:25:52;;;;;;;5.47;2.93;;;13.50;99.90;;;;;;5095191;28;20444;-86
2022/04/26 16:28:21;;;;;;;3.90;2.60;;;13.50;99.90;;;;;;5094413;28;20495;-88
2022/04/26 16:30:54;;;;;;;5.53;2.87;;;13.30;99.90;;;;;;5093349;28;20488;-86
2022/04/26 16:33:21;;;;;;;6.03;3.33;;;13.20;99.90;;;;;;5093324;28;20443;-88
2022/04/26 16:35:50;;;;;;;6.33;3.40;;;13.10;99.90;;;;;;5091588;28;20410;-86
2022/04/26 16:38:18;;;;;;;5.73;2.80;;;13.20;99.90;;;;;;5086445;28;20545;-88
2022/04/26 16:40:46;;;;;;;5.37;3.30;;;13.20;99.90;;;;;;5083535;28;20922;-87
2022/04/26 16:43:15;;;;;;;6.20;3.80;;;13.10;99.90;;;;;;5086382;28;20434;-87
2022/04/26 16:45:45;;;;;;;6.77;3.57;;;13.10;99.90;;;;;;5082447;28;20427;-87
2022/04/26 16:48:12;;;;;;;5.10;3.10;;;13.10;99.90;;;;;;5083665;28;20506;-87
2022/04/26 16:53:56;;;;;;;5.53;3.00;;;12.70;99.90;;;;;;5057213;28;20439;-89
2022/04/26 16:56:24;;;;;;;6.50;4.33;;;12.50;99.90;;;;;;5089596;28;20416;-89
2022/04/26 16:58:51;;;;;;;6.03;3.80;;;12.40;99.90;;;;;;5088387;28;20502;-88
2022/04/26 17:01:22;;;;;;;6.50;2.80;;;12.50;99.90;;;;;;5086096;28;20454;-88
2022/04/26 17:03:51;;;;;;;5.43;3.00;;;12.30;99.90;;;;;;5086580;28;20412;-86
2022/04/26 17:06:20;;;;;;;4.70;2.60;;;12.40;99.90;;;;;;5087313;28;20443;-87
2022/04/26 17:09:05;;;;;;;8.13;2.67;;;12.30;99.90;;;;;;5090490;28;20450;-87
2022/04/26 17:11:44;;;;;;;6.20;3.30;;;12.20;99.90;;;;;;5085784;28;20530;-87
2022/04/26 17:14:25;;;;;;;4.57;2.93;;;12.40;99.90;;;;;;5091673;28;20488;-87
2022/04/26 17:16:53;;;;;;;4.73;2.57;;;12.40;99.90;;;;;;5093111;28;20478;-87
2022/04/26 17:19:21;;;;;;;3.87;2.27;;;12.20;99.90;;;;;;5097113;28;20431;-86
2022/04/26 17:21:52;;;;;;;5.17;2.73;;;12.20;99.90;;;;;;5091606;28;20436;-87
2022/04/26 17:27:11;;;;;;;4.30;2.43;;;12.10;99.90;;;;;;5092420;28;20479;-89
2022/04/26 17:29:41;;;;;;;4.10;2.20;;;11.90;99.90;;;;;;5099026;28;20466;-87